sensor_id;sensor_type;location;lat;lon;timestamp;temperature;humidity
54930;DHT22;40833;53.238;6.576;2023-04-02T00:11:48;2.80;99.90
54930;DHT22;40833;53.238;6.576;2023-04-02T00:16:51;2.60;99.90
54930;DHT22;40833;53.238;6.576;2023-04-02T00:19:22;2.70;99.90
54930;DHT22;40833;53.238;6.576;2023-04-02T00:21:49;2.60;99.90
54930;DHT22;40833;53.238;6.576;2023-04-02T00:24:19;2.70;99.90
54930;DHT22;40833;53.238;6.576;2023-04-02T00:26:48;2.80;99.90
54930;DHT22;40833;53.238;6.576;2023-04-02T00:29:15;2.60;99.90
54930;DHT22;40833;53.238;6.576;2023-04-02T00:31:45;2.60;99.90
54930;DHT22;40833;53.238;6.576;2023-04-02T00:34:24;2.50;99.90
54930;DHT22;40833;53.238;6.576;2023-04-02T00:36:52;2.30;99.90
54930;DHT22;40833;53.238;6.576;2023-04-02T00:39:26;2.30;99.90
54930;DHT22;40833;53.238;6.576;2023-04-02T00:41:54;2.10;99.90
54930;DHT22;40833;53.238;6.576;2023-04-02T00:44:23;2.50;99.90
54930;DHT22;40833;53.238;6.576;2023-04-02T00:46:49;2.10;99.90
54930;DHT22;40833;53.238;6.576;2023-04-02T00:49:33;2.30;99.90
54930;DHT22;40833;53.238;6.576;2023-04-02T00:52:12;2.30;99.90
54930;DHT22;40833;53.238;6.576;2023-04-02T00:54:48;2.40;99.90
54930;DHT22;40833;53.238;6.576;2023-04-02T00:57:18;2.20;99.90
54930;DHT22;40833;53.238;6.576;2023-04-02T01:02:43;2.10;99.90
54930;DHT22;40833;53.238;6.576;2023-04-02T01:05:33;2.10;99.90
54930;DHT22;40833;53.238;6.576;2023-04-02T01:16:15;2.10;99.90
54930;DHT22;40833;53.238;6.576;2023-04-02T01:22:24;1.90;99.90
54930;DHT22;40833;53.238;6.576;2023-04-02T01:27:24;1.90;99.90
54930;DHT22;40833;53.238;6.576;2023-04-02T01:29:55;1.80;99.90
54930;DHT22;40833;53.238;6.576;2023-04-02T01:32:23;1.80;99.90
54930;DHT22;40833;53.238;6.576;2023-04-02T01:34:50;1.80;99.90
54930;DHT22;40833;53.238;6.576;2023-04-02T01:40:43;1.80;99.90
54930;DHT22;40833;53.238;6.576;2023-04-02T01:43:21;1.60;99.90
54930;DHT22;40833;53.238;6.576;2023-04-02T01:48:24;1.60;99.90
54930;DHT22;40833;53.238;6.576;2023-04-02T01:50:55;1.50;99.90
54930;DHT22;40833;53.238;6.576;2023-04-02T01:53:24;1.60;99.90
54930;DHT22;40833;53.238;6.576;2023-04-02T01:55:56;1.50;99.90
54930;DHT22;40833;53.238;6.576;2023-04-02T01:58:27;1.50;99.90
54930;DHT22;40833;53.238;6.576;2023-04-02T02:01:06;1.40;99.90
54930;DHT22;40833;53.238;6.576;2023-04-02T02:05:59;1.30;99.90
54930;DHT22;40833;53.238;6.576;2023-04-02T02:08:40;1.40;99.90
54930;DHT22;40833;53.238;6.576;2023-04-02T02:11:14;0.90;99.90
54930;DHT22;40833;53.238;6.576;2023-04-02T02:13:45;1.40;99.90
54930;DHT22;40833;53.238;6.576;2023-04-02T02:16:15;1.30;99.90
54930;DHT22;40833;53.238;6.576;2023-04-02T02:21:09;1.30;99.90
54930;DHT22;40833;53.238;6.576;2023-04-02T02:23:36;1.30;99.90
54930;DHT22;40833;53.238;6.576;2023-04-02T02:26:04;2.10;99.90
54930;DHT22;40833;53.238;6.576;2023-04-02T02:28:34;1.20;99.90
54930;DHT22;40833;53.238;6.576;2023-04-02T02:31:18;1.10;99.90
54930;DHT22;40833;53.238;6.576;2023-04-02T02:33:49;1.30;99.90
54930;DHT22;40833;53.238;6.576;2023-04-02T02:41:25;-1.60;99.90
54930;DHT22;40833;53.238;6.576;2023-04-02T02:46:38;1.10;99.90
54930;DHT22;40833;53.238;6.576;2023-04-02T02:51:49;1.00;99.90
54930;DHT22;40833;53.238;6.576;2023-04-02T02:54:17;1.10;99.90
54930;DHT22;40833;53.238;6.576;2023-04-02T02:56:48;1.00;99.90
54930;DHT22;40833;53.238;6.576;2023-04-02T02:59:16;1.00;99.90
54930;DHT22;40833;53.238;6.576;2023-04-02T03:01:43;1.00;99.90
54930;DHT22;40833;53.238;6.576;2023-04-02T03:04:09;1.20;99.90
54930;DHT22;40833;53.238;6.576;2023-04-02T03:09:18;0.90;99.90
54930;DHT22;40833;53.238;6.576;2023-04-02T03:11:55;0.60;99.90
54930;DHT22;40833;53.238;6.576;2023-04-02T03:14:40;0.90;99.90
54930;DHT22;40833;53.238;6.576;2023-04-02T03:19:53;0.90;99.90
54930;DHT22;40833;53.238;6.576;2023-04-02T03:22:30;1.20;99.90
54930;DHT22;40833;53.238;6.576;2023-04-02T03:25:01;0.90;99.90
54930;DHT22;40833;53.238;6.576;2023-04-02T03:27:42;0.60;99.90
54930;DHT22;40833;53.238;6.576;2023-04-02T03:30:30;0.70;99.90
54930;DHT22;40833;53.238;6.576;2023-04-02T03:33:02;0.70;99.90
54930;DHT22;40833;53.238;6.576;2023-04-02T03:35:57;0.90;99.90
54930;DHT22;40833;53.238;6.576;2023-04-02T03:38:42;0.70;99.90
54930;DHT22;40833;53.238;6.576;2023-04-02T03:44:03;0.90;99.90
54930;DHT22;40833;53.238;6.576;2023-04-02T03:46:44;0.80;99.90
54930;DHT22;40833;53.238;6.576;2023-04-02T03:49:25;0.70;99.90
54930;DHT22;40833;53.238;6.576;2023-04-02T03:52:22;0.80;99.90
54930;DHT22;40833;53.238;6.576;2023-04-02T04:00:39;0.50;99.90
54930;DHT22;40833;53.238;6.576;2023-04-02T04:06:07;1.30;99.90
54930;DHT22;40833;53.238;6.576;2023-04-02T04:08:50;0.70;99.90
54930;DHT22;40833;53.238;6.576;2023-04-02T04:11:23;0.50;99.90
54930;DHT22;40833;53.238;6.576;2023-04-02T04:14:27;0.50;99.90
54930;DHT22;40833;53.238;6.576;2023-04-02T04:19:45;0.40;99.90
54930;DHT22;40833;53.238;6.576;2023-04-02T04:22:23;0.60;99.90
54930;DHT22;40833;53.238;6.576;2023-04-02T04:25:16;0.50;99.90
54930;DHT22;40833;53.238;6.576;2023-04-02T04:31:22;0.60;99.90
54930;DHT22;40833;53.238;6.576;2023-04-02T04:33:53;0.50;99.90
54930;DHT22;40833;53.238;6.576;2023-04-02T04:36:34;0.40;99.90
54930;DHT22;40833;53.238;6.576;2023-04-02T04:39:10;0.50;99.90
54930;DHT22;40833;53.238;6.576;2023-04-02T04:41:40;0.50;99.90
54930;DHT22;40833;53.238;6.576;2023-04-02T04:44:23;0.40;99.90
54930;DHT22;40833;53.238;6.576;2023-04-02T04:47:10;0.40;99.90
54930;DHT22;40833;53.238;6.576;2023-04-02T04:49:54;0.90;99.90
54930;DHT22;40833;53.238;6.576;2023-04-02T04:52:25;0.50;99.90
54930;DHT22;40833;53.238;6.576;2023-04-02T04:57:31;0.30;99.90
54930;DHT22;40833;53.238;6.576;2023-04-02T05:00:24;0.00;99.90
54930;DHT22;40833;53.238;6.576;2023-04-02T05:03:07;0.60;99.90
54930;DHT22;40833;53.238;6.576;2023-04-02T05:05:38;0.40;99.90
54930;DHT22;40833;53.238;6.576;2023-04-02T05:08:14;0.40;99.90
54930;DHT22;40833;53.238;6.576;2023-04-02T05:10:51;0.40;99.90
54930;DHT22;40833;53.238;6.576;2023-04-02T05:13:38;0.40;99.90
54930;DHT22;40833;53.238;6.576;2023-04-02T05:16:25;0.50;99.90
54930;DHT22;40833;53.238;6.576;2023-04-02T05:19:13;0.40;99.90
54930;DHT22;40833;53.238;6.576;2023-04-02T05:22:11;0.30;99.90
54930;DHT22;40833;53.238;6.576;2023-04-02T05:25:35;0.30;99.90
54930;DHT22;40833;53.238;6.576;2023-04-02T05:28:20;0.40;99.90
54930;DHT22;40833;53.238;6.576;2023-04-02T05:30:56;0.20;99.90
54930;DHT22;40833;53.238;6.576;2023-04-02T05:36:22;0.60;99.90
54930;DHT22;40833;53.238;6.576;2023-04-02T05:38:50;0.30;99.90
54930;DHT22;40833;53.238;6.576;2023-04-02T05:43:50;0.50;99.90
54930;DHT22;40833;53.238;6.576;2023-04-02T05:46:24;0.40;99.90
54930;DHT22;40833;53.238;6.576;2023-04-02T05:48:55;0.70;99.90
54930;DHT22;40833;53.238;6.576;2023-04-02T05:51:44;0.60;99.90
54930;DHT22;40833;53.238;6.576;2023-04-02T05:54:25;0.60;99.90
54930;DHT22;40833;53.238;6.576;2023-04-02T05:56:56;0.70;99.90
54930;DHT22;40833;53.238;6.576;2023-04-02T05:59:35;0.70;99.90
54930;DHT22;40833;53.238;6.576;2023-04-02T06:04:53;0.80;99.90
54930;DHT22;40833;53.238;6.576;2023-04-02T06:07:34;1.00;99.90
54930;DHT22;40833;53.238;6.576;2023-04-02T06:10:26;0.90;99.90
54930;DHT22;40833;53.238;6.576;2023-04-02T06:13:00;1.00;99.90
54930;DHT22;40833;53.238;6.576;2023-04-02T06:15:30;0.90;99.90
54930;DHT22;40833;53.238;6.576;2023-04-02T06:18:00;1.00;99.90
54930;DHT22;40833;53.238;6.576;2023-04-02T06:23:12;1.00;99.90
54930;DHT22;40833;53.238;6.576;2023-04-02T06:25:51;1.20;99.90
54930;DHT22;40833;53.238;6.576;2023-04-02T06:28:26;1.30;99.90
54930;DHT22;40833;53.238;6.576;2023-04-02T06:30:57;1.30;99.90
54930;DHT22;40833;53.238;6.576;2023-04-02T06:33:25;1.30;99.90
54930;DHT22;40833;53.238;6.576;2023-04-02T06:35:51;4.30;99.90
54930;DHT22;40833;53.238;6.576;2023-04-02T06:38:23;1.30;99.90
54930;DHT22;40833;53.238;6.576;2023-04-02T06:41:00;1.60;99.90
54930;DHT22;40833;53.238;6.576;2023-04-02T06:43:37;1.60;99.90
54930;DHT22;40833;53.238;6.576;2023-04-02T06:46:11;1.70;99.90
54930;DHT22;40833;53.238;6.576;2023-04-02T06:48:39;1.80;99.90
54930;DHT22;40833;53.238;6.576;2023-04-02T06:51:10;1.80;99.90
54930;DHT22;40833;53.238;6.576;2023-04-02T06:53:43;1.70;99.90
54930;DHT22;40833;53.238;6.576;2023-04-02T06:56:40;2.20;99.90
54930;DHT22;40833;53.238;6.576;2023-04-02T06:59:08;2.00;99.90
54930;DHT22;40833;53.238;6.576;2023-04-02T07:01:59;2.00;99.90
54930;DHT22;40833;53.238;6.576;2023-04-02T07:04:23;2.00;99.90
54930;DHT22;40833;53.238;6.576;2023-04-02T07:14:10;2.40;99.90
54930;DHT22;40833;53.238;6.576;2023-04-02T07:19:04;2.30;99.90
54930;DHT22;40833;53.238;6.576;2023-04-02T07:21:30;2.50;99.90
54930;DHT22;40833;53.238;6.576;2023-04-02T07:23:56;2.70;99.90
54930;DHT22;40833;53.238;6.576;2023-04-02T07:26:25;2.80;99.90
54930;DHT22;40833;53.238;6.576;2023-04-02T07:28:53;2.90;99.90
54930;DHT22;40833;53.238;6.576;2023-04-02T07:31:24;3.00;99.90
54930;DHT22;40833;53.238;6.576;2023-04-02T07:33:53;3.20;99.90
54930;DHT22;40833;53.238;6.576;2023-04-02T07:36:21;3.10;99.90
54930;DHT22;40833;53.238;6.576;2023-04-02T07:41:14;3.30;99.90
54930;DHT22;40833;53.238;6.576;2023-04-02T07:43:41;3.50;99.90
54930;DHT22;40833;53.238;6.576;2023-04-02T07:46:08;3.80;99.90
54930;DHT22;40833;53.238;6.576;2023-04-02T07:48:34;3.50;99.90
54930;DHT22;40833;53.238;6.576;2023-04-02T07:53:36;3.60;99.90
54930;DHT22;40833;53.238;6.576;2023-04-02T07:56:05;4.40;99.90
54930;DHT22;40833;53.238;6.576;2023-04-02T07:58:32;4.50;99.90
54930;DHT22;40833;53.238;6.576;2023-04-02T08:00:59;4.20;99.90
54930;DHT22;40833;53.238;6.576;2023-04-02T08:03:28;4.60;99.90
54930;DHT22;40833;53.238;6.576;2023-04-02T08:05:56;4.60;99.90
54930;DHT22;40833;53.238;6.576;2023-04-02T08:08:23;4.20;99.90
54930;DHT22;40833;53.238;6.576;2023-04-02T08:10:50;4.00;99.90
54930;DHT22;40833;53.238;6.576;2023-04-02T08:13:17;4.50;99.90
54930;DHT22;40833;53.238;6.576;2023-04-02T08:15:43;3.90;99.90
54930;DHT22;40833;53.238;6.576;2023-04-02T08:18:10;4.70;99.90
54930;DHT22;40833;53.238;6.576;2023-04-02T08:20:36;4.30;99.90
54930;DHT22;40833;53.238;6.576;2023-04-02T08:23:02;4.80;99.90
54930;DHT22;40833;53.238;6.576;2023-04-02T08:27:55;4.40;99.90
54930;DHT22;40833;53.238;6.576;2023-04-02T08:30:20;4.40;99.90
54930;DHT22;40833;53.238;6.576;2023-04-02T08:35:15;4.70;99.90
54930;DHT22;40833;53.238;6.576;2023-04-02T08:37:41;4.30;99.90
54930;DHT22;40833;53.238;6.576;2023-04-02T08:40:21;5.20;99.90
54930;DHT22;40833;53.238;6.576;2023-04-02T08:48:27;5.00;99.90
54930;DHT22;40833;53.238;6.576;2023-04-02T08:50:56;4.80;99.90
54930;DHT22;40833;53.238;6.576;2023-04-02T08:53:33;5.00;99.90
54930;DHT22;40833;53.238;6.576;2023-04-02T08:56:26;4.90;99.90
54930;DHT22;40833;53.238;6.576;2023-04-02T09:04:15;5.00;99.90
54930;DHT22;40833;53.238;6.576;2023-04-02T09:06:42;3.90;99.90
54930;DHT22;40833;53.238;6.576;2023-04-02T09:09:10;5.20;99.90
54930;DHT22;40833;53.238;6.576;2023-04-02T09:11:55;5.70;99.90
54930;DHT22;40833;53.238;6.576;2023-04-02T09:14:44;5.30;99.90
54930;DHT22;40833;53.238;6.576;2023-04-02T09:17:21;5.30;99.90
54930;DHT22;40833;53.238;6.576;2023-04-02T09:20:17;5.40;99.90
54930;DHT22;40833;53.238;6.576;2023-04-02T09:22:47;6.00;99.90
54930;DHT22;40833;53.238;6.576;2023-04-02T09:25:24;5.60;99.90
54930;DHT22;40833;53.238;6.576;2023-04-02T09:27:55;5.60;99.90
54930;DHT22;40833;53.238;6.576;2023-04-02T09:33:01;6.30;99.90
54930;DHT22;40833;53.238;6.576;2023-04-02T09:35:33;5.90;99.90
54930;DHT22;40833;53.238;6.576;2023-04-02T09:43:29;6.00;99.90
54930;DHT22;40833;53.238;6.576;2023-04-02T09:46:16;6.10;99.90
54930;DHT22;40833;53.238;6.576;2023-04-02T09:48:53;6.10;99.90
54930;DHT22;40833;53.238;6.576;2023-04-02T09:51:22;6.20;99.90
54930;DHT22;40833;53.238;6.576;2023-04-02T09:54:07;6.70;99.90
54930;DHT22;40833;53.238;6.576;2023-04-02T09:56:39;6.30;99.90
54930;DHT22;40833;53.238;6.576;2023-04-02T10:01:43;6.30;99.90
54930;DHT22;40833;53.238;6.576;2023-04-02T10:04:41;6.40;99.90
54930;DHT22;40833;53.238;6.576;2023-04-02T10:07:37;6.50;99.90
54930;DHT22;40833;53.238;6.576;2023-04-02T10:10:27;6.60;99.90
54930;DHT22;40833;53.238;6.576;2023-04-02T10:13:17;6.70;99.90
54930;DHT22;40833;53.238;6.576;2023-04-02T10:21:16;6.70;99.90
54930;DHT22;40833;53.238;6.576;2023-04-02T10:23:43;6.80;99.90
54930;DHT22;40833;53.238;6.576;2023-04-02T10:31:43;7.00;99.90
54930;DHT22;40833;53.238;6.576;2023-04-02T10:34:20;7.00;99.90
54930;DHT22;40833;53.238;6.576;2023-04-02T10:39:40;7.10;99.90
54930;DHT22;40833;53.238;6.576;2023-04-02T10:42:33;7.20;99.90
54930;DHT22;40833;53.238;6.576;2023-04-02T10:45:39;7.30;99.90
54930;DHT22;40833;53.238;6.576;2023-04-02T10:51:05;7.40;99.90
54930;DHT22;40833;53.238;6.576;2023-04-02T10:56:22;8.10;99.90
54930;DHT22;40833;53.238;6.576;2023-04-02T11:01:26;7.60;99.90
54930;DHT22;40833;53.238;6.576;2023-04-02T11:04:02;7.70;99.90
54930;DHT22;40833;53.238;6.576;2023-04-02T11:06:49;7.70;99.90
54930;DHT22;40833;53.238;6.576;2023-04-02T11:09:23;8.90;99.90
54930;DHT22;40833;53.238;6.576;2023-04-02T11:11:53;8.00;99.90
54930;DHT22;40833;53.238;6.576;2023-04-02T11:14:25;8.40;99.90
54930;DHT22;40833;53.238;6.576;2023-04-02T11:16:53;8.40;99.90
54930;DHT22;40833;53.238;6.576;2023-04-02T11:19:25;8.40;99.90
54930;DHT22;40833;53.238;6.576;2023-04-02T11:24:45;8.20;99.90
54930;DHT22;40833;53.238;6.576;2023-04-02T11:27:16;8.20;99.90
54930;DHT22;40833;53.238;6.576;2023-04-02T11:37:40;8.50;99.90
54930;DHT22;40833;53.238;6.576;2023-04-02T11:42:39;8.40;99.90
54930;DHT22;40833;53.238;6.576;2023-04-02T11:50:35;8.70;99.90
54930;DHT22;40833;53.238;6.576;2023-04-02T11:53:03;8.80;99.90
54930;DHT22;40833;53.238;6.576;2023-04-02T11:55:35;8.70;99.90
54930;DHT22;40833;53.238;6.576;2023-04-02T12:04:10;8.80;99.90
54930;DHT22;40833;53.238;6.576;2023-04-02T12:09:58;9.00;99.90
54930;DHT22;40833;53.238;6.576;2023-04-02T12:12:37;9.20;99.90
54930;DHT22;40833;53.238;6.576;2023-04-02T12:15:27;9.20;99.90
54930;DHT22;40833;53.238;6.576;2023-04-02T12:17:52;9.20;99.90
54930;DHT22;40833;53.238;6.576;2023-04-02T12:20:28;9.20;99.90
54930;DHT22;40833;53.238;6.576;2023-04-02T12:22:56;9.10;99.90
54930;DHT22;40833;53.238;6.576;2023-04-02T12:25:33;9.20;99.90
54930;DHT22;40833;53.238;6.576;2023-04-02T12:30:39;9.40;99.90
54930;DHT22;40833;53.238;6.576;2023-04-02T12:33:31;9.20;99.90
54930;DHT22;40833;53.238;6.576;2023-04-02T12:36:00;9.30;99.90
54930;DHT22;40833;53.238;6.576;2023-04-02T12:38:30;9.40;99.90
54930;DHT22;40833;53.238;6.576;2023-04-02T12:40:58;9.60;99.90
54930;DHT22;40833;53.238;6.576;2023-04-02T12:43:24;9.50;99.90
54930;DHT22;40833;53.238;6.576;2023-04-02T12:45:52;9.80;99.90
54930;DHT22;40833;53.238;6.576;2023-04-02T12:48:19;9.70;99.90
54930;DHT22;40833;53.238;6.576;2023-04-02T12:50:45;9.80;99.90
54930;DHT22;40833;53.238;6.576;2023-04-02T12:53:22;9.90;99.90
54930;DHT22;40833;53.238;6.576;2023-04-02T12:55:50;9.80;99.90
54930;DHT22;40833;53.238;6.576;2023-04-02T12:58:36;9.90;99.90
54930;DHT22;40833;53.238;6.576;2023-04-02T13:03:34;9.90;99.90
54930;DHT22;40833;53.238;6.576;2023-04-02T13:06:00;10.00;99.90
54930;DHT22;40833;53.238;6.576;2023-04-02T13:08:40;10.10;99.90
54930;DHT22;40833;53.238;6.576;2023-04-02T13:11:06;10.80;99.90
54930;DHT22;40833;53.238;6.576;2023-04-02T13:13:37;10.50;99.90
54930;DHT22;40833;53.238;6.576;2023-04-02T13:16:27;10.30;99.90
54930;DHT22;40833;53.238;6.576;2023-04-02T13:19:10;10.30;99.90
54930;DHT22;40833;53.238;6.576;2023-04-02T13:21:36;10.30;99.90
54930;DHT22;40833;53.238;6.576;2023-04-02T13:24:03;10.10;99.90
54930;DHT22;40833;53.238;6.576;2023-04-02T13:26:29;10.50;99.90
54930;DHT22;40833;53.238;6.576;2023-04-02T13:31:44;10.20;99.90
54930;DHT22;40833;53.238;6.576;2023-04-02T13:34:09;9.80;99.90
54930;DHT22;40833;53.238;6.576;2023-04-02T13:36:35;9.80;99.90
54930;DHT22;40833;53.238;6.576;2023-04-02T13:39:02;9.70;99.90
54930;DHT22;40833;53.238;6.576;2023-04-02T13:41:30;10.20;99.90
54930;DHT22;40833;53.238;6.576;2023-04-02T13:43:58;10.00;99.90
54930;DHT22;40833;53.238;6.576;2023-04-02T13:46:29;10.20;99.90
54930;DHT22;40833;53.238;6.576;2023-04-02T13:48:56;10.20;99.90
54930;DHT22;40833;53.238;6.576;2023-04-02T13:51:47;10.30;99.90
54930;DHT22;40833;53.238;6.576;2023-04-02T13:54:28;10.30;99.90
54930;DHT22;40833;53.238;6.576;2023-04-02T13:56:56;10.10;99.90
54930;DHT22;40833;53.238;6.576;2023-04-02T13:59:22;10.10;99.90
54930;DHT22;40833;53.238;6.576;2023-04-02T14:01:50;10.20;99.90
54930;DHT22;40833;53.238;6.576;2023-04-02T14:04:24;10.30;99.90
54930;DHT22;40833;53.238;6.576;2023-04-02T14:12:39;10.80;99.90
54930;DHT22;40833;53.238;6.576;2023-04-02T14:18:09;11.10;99.90
54930;DHT22;40833;53.238;6.576;2023-04-02T14:23:46;11.50;99.90
54930;DHT22;40833;53.238;6.576;2023-04-02T14:29:08;12.00;99.90
54930;DHT22;40833;53.238;6.576;2023-04-02T14:37:03;12.00;99.90
54930;DHT22;40833;53.238;6.576;2023-04-02T14:39:35;12.00;99.90
54930;DHT22;40833;53.238;6.576;2023-04-02T14:42:15;12.10;99.90
54930;DHT22;40833;53.238;6.576;2023-04-02T14:44:56;12.10;99.90
54930;DHT22;40833;53.238;6.576;2023-04-02T14:47:28;12.30;99.90
54930;DHT22;40833;53.238;6.576;2023-04-02T14:50:02;12.30;99.90
54930;DHT22;40833;53.238;6.576;2023-04-02T14:52:32;12.60;99.90
54930;DHT22;40833;53.238;6.576;2023-04-02T14:55:13;12.60;99.90
54930;DHT22;40833;53.238;6.576;2023-04-02T14:57:49;12.70;99.90
54930;DHT22;40833;53.238;6.576;2023-04-02T15:03:34;12.90;99.90
54930;DHT22;40833;53.238;6.576;2023-04-02T15:06:10;12.80;99.90
54930;DHT22;40833;53.238;6.576;2023-04-02T15:11:09;13.20;99.90
54930;DHT22;40833;53.238;6.576;2023-04-02T15:13:40;13.30;99.90
54930;DHT22;40833;53.238;6.576;2023-04-02T15:16:12;13.40;99.90
54930;DHT22;40833;53.238;6.576;2023-04-02T15:18:39;13.50;99.90
54930;DHT22;40833;53.238;6.576;2023-04-02T15:24:21;13.50;99.60
54930;DHT22;40833;53.238;6.576;2023-04-02T15:32:28;13.80;99.30
54930;DHT22;40833;53.238;6.576;2023-04-02T15:37:47;14.00;98.30
54930;DHT22;40833;53.238;6.576;2023-04-02T15:40:28;14.40;98.30
54930;DHT22;40833;53.238;6.576;2023-04-02T15:53:21;15.00;98.90
54930;DHT22;40833;53.238;6.576;2023-04-02T15:56:33;15.00;99.50
54930;DHT22;40833;53.238;6.576;2023-04-02T16:01:57;14.90;97.10
54930;DHT22;40833;53.238;6.576;2023-04-02T16:05:02;14.80;95.40
54930;DHT22;40833;53.238;6.576;2023-04-02T16:10:36;14.90;95.90
54930;DHT22;40833;53.238;6.576;2023-04-02T16:13:30;14.90;97.90
54930;DHT22;40833;53.238;6.576;2023-04-02T16:21:16;14.50;95.70
54930;DHT22;40833;53.238;6.576;2023-04-02T16:23:43;14.60;95.00
54930;DHT22;40833;53.238;6.576;2023-04-02T16:34:13;13.00;95.90
54930;DHT22;40833;53.238;6.576;2023-04-02T16:40:20;11.70;97.50
54930;DHT22;40833;53.238;6.576;2023-04-02T16:42:28;11.30;97.30
54930;DHT22;40833;53.238;6.576;2023-04-02T17:02:50;9.30;99.70
54930;DHT22;40833;53.238;6.576;2023-04-02T17:05:32;8.80;99.90
54930;DHT22;40833;53.238;6.576;2023-04-02T17:08:22;9.10;99.90
54930;DHT22;40833;53.238;6.576;2023-04-02T17:11:01;9.00;99.90
54930;DHT22;40833;53.238;6.576;2023-04-02T17:16:36;8.70;99.90
54930;DHT22;40833;53.238;6.576;2023-04-02T17:19:14;8.60;99.90
54930;DHT22;40833;53.238;6.576;2023-04-02T17:21:42;8.50;99.90
54930;DHT22;40833;53.238;6.576;2023-04-02T17:26:44;7.80;99.90
54930;DHT22;40833;53.238;6.576;2023-04-02T17:29:16;8.10;99.90
54930;DHT22;40833;53.238;6.576;2023-04-02T17:31:44;7.90;99.90
54930;DHT22;40833;53.238;6.576;2023-04-02T17:34:16;7.80;99.90
54930;DHT22;40833;53.238;6.576;2023-04-02T17:47:21;7.60;99.90
54930;DHT22;40833;53.238;6.576;2023-04-02T17:53:14;7.30;99.90
54930;DHT22;40833;53.238;6.576;2023-04-02T18:01:06;7.10;99.90
54930;DHT22;40833;53.238;6.576;2023-04-02T18:03:48;7.00;99.90
54930;DHT22;40833;53.238;6.576;2023-04-02T18:09:32;6.50;99.90
54930;DHT22;40833;53.238;6.576;2023-04-02T18:23:52;6.00;99.90
54930;DHT22;40833;53.238;6.576;2023-04-02T18:31:15;5.90;99.90
54930;DHT22;40833;53.238;6.576;2023-04-02T18:37:22;5.90;99.90
54930;DHT22;40833;53.238;6.576;2023-04-02T18:45:00;5.70;99.90
54930;DHT22;40833;53.238;6.576;2023-04-02T18:50:34;5.50;99.90
54930;DHT22;40833;53.238;6.576;2023-04-02T18:53:14;5.20;99.90
54930;DHT22;40833;53.238;6.576;2023-04-02T18:55:55;5.30;99.90
54930;DHT22;40833;53.238;6.576;2023-04-02T19:01:18;5.30;99.90
54930;DHT22;40833;53.238;6.576;2023-04-02T19:03:49;5.00;99.90
54930;DHT22;40833;53.238;6.576;2023-04-02T19:06:29;5.10;99.90
54930;DHT22;40833;53.238;6.576;2023-04-02T19:09:02;5.30;99.90
54930;DHT22;40833;53.238;6.576;2023-04-02T19:11:31;5.10;99.90
54930;DHT22;40833;53.238;6.576;2023-04-02T19:14:10;5.10;99.90
54930;DHT22;40833;53.238;6.576;2023-04-02T19:19:22;5.00;99.90
54930;DHT22;40833;53.238;6.576;2023-04-02T19:30:55;4.70;99.90
54930;DHT22;40833;53.238;6.576;2023-04-02T19:44:56;4.50;99.90
54930;DHT22;40833;53.238;6.576;2023-04-02T19:47:22;4.50;99.90
54930;DHT22;40833;53.238;6.576;2023-04-02T19:49:49;4.40;99.90
54930;DHT22;40833;53.238;6.576;2023-04-02T19:52:15;4.30;99.90
54930;DHT22;40833;53.238;6.576;2023-04-02T19:54:41;4.30;99.90
54930;DHT22;40833;53.238;6.576;2023-04-02T19:57:08;4.30;99.90
54930;DHT22;40833;53.238;6.576;2023-04-02T19:59:35;4.20;99.90
54930;DHT22;40833;53.238;6.576;2023-04-02T20:02:01;4.20;99.90
54930;DHT22;40833;53.238;6.576;2023-04-02T20:04:30;4.20;99.90
54930;DHT22;40833;53.238;6.576;2023-04-02T20:06:56;4.10;99.90
54930;DHT22;40833;53.238;6.576;2023-04-02T20:09:22;5.20;99.90
54930;DHT22;40833;53.238;6.576;2023-04-02T20:11:47;4.00;99.90
54930;DHT22;40833;53.238;6.576;2023-04-02T20:16:39;4.00;99.90
54930;DHT22;40833;53.238;6.576;2023-04-02T20:19:05;3.90;99.90
54930;DHT22;40833;53.238;6.576;2023-04-02T20:21:31;3.90;99.90
54930;DHT22;40833;53.238;6.576;2023-04-02T20:24:05;3.90;99.90
54930;DHT22;40833;53.238;6.576;2023-04-02T20:26:31;3.90;99.90
54930;DHT22;40833;53.238;6.576;2023-04-02T20:28:58;4.80;99.90
54930;DHT22;40833;53.238;6.576;2023-04-02T20:31:23;3.80;99.90
54930;DHT22;40833;53.238;6.576;2023-04-02T20:33:53;3.80;99.90
54930;DHT22;40833;53.238;6.576;2023-04-02T20:36:19;3.80;99.90
54930;DHT22;40833;53.238;6.576;2023-04-02T20:38:45;5.20;99.90
54930;DHT22;40833;53.238;6.576;2023-04-02T20:41:11;3.70;99.90
54930;DHT22;40833;53.238;6.576;2023-04-02T20:43:39;3.70;99.90
54930;DHT22;40833;53.238;6.576;2023-04-02T20:46:07;4.80;99.90
54930;DHT22;40833;53.238;6.576;2023-04-02T20:48:34;3.60;99.90
54930;DHT22;40833;53.238;6.576;2023-04-02T20:51:03;4.20;99.90
54930;DHT22;40833;53.238;6.576;2023-04-02T20:53:31;3.60;99.90
54930;DHT22;40833;53.238;6.576;2023-04-02T20:56:13;3.60;99.90
54930;DHT22;40833;53.238;6.576;2023-04-02T20:58:40;3.60;99.90
54930;DHT22;40833;53.238;6.576;2023-04-02T21:01:13;3.50;99.90
54930;DHT22;40833;53.238;6.576;2023-04-02T21:03:40;3.60;99.90
54930;DHT22;40833;53.238;6.576;2023-04-02T21:06:19;3.40;99.90
54930;DHT22;40833;53.238;6.576;2023-04-02T21:08:46;3.50;99.90
54930;DHT22;40833;53.238;6.576;2023-04-02T21:11:13;3.60;99.90
54930;DHT22;40833;53.238;6.576;2023-04-02T21:13:39;3.50;99.90
54930;DHT22;40833;53.238;6.576;2023-04-02T21:16:13;4.00;99.90
54930;DHT22;40833;53.238;6.576;2023-04-02T21:18:40;3.50;99.90
54930;DHT22;40833;53.238;6.576;2023-04-02T21:21:07;4.70;99.90
54930;DHT22;40833;53.238;6.576;2023-04-02T21:23:33;3.50;99.90
54930;DHT22;40833;53.238;6.576;2023-04-02T21:26:00;3.90;99.90
54930;DHT22;40833;53.238;6.576;2023-04-02T21:28:27;3.40;99.90
54930;DHT22;40833;53.238;6.576;2023-04-02T21:31:02;3.60;99.90
54930;DHT22;40833;53.238;6.576;2023-04-02T21:33:28;3.40;99.90
54930;DHT22;40833;53.238;6.576;2023-04-02T21:35:54;5.80;99.90
54930;DHT22;40833;53.238;6.576;2023-04-02T21:38:20;5.30;99.90
54930;DHT22;40833;53.238;6.576;2023-04-02T21:40:45;3.40;99.90
54930;DHT22;40833;53.238;6.576;2023-04-02T21:45:37;2.20;99.90
54930;DHT22;40833;53.238;6.576;2023-04-02T21:48:03;3.60;99.90
54930;DHT22;40833;53.238;6.576;2023-04-02T21:50:29;3.10;99.90
54930;DHT22;40833;53.238;6.576;2023-04-02T21:52:54;3.50;99.90
54930;DHT22;40833;53.238;6.576;2023-04-02T21:55:20;3.10;99.90
54930;DHT22;40833;53.238;6.576;2023-04-02T21:57:46;3.00;99.90
54930;DHT22;40833;53.238;6.576;2023-04-02T22:00:12;3.80;99.90
54930;DHT22;40833;53.238;6.576;2023-04-02T22:02:38;2.90;99.90
54930;DHT22;40833;53.238;6.576;2023-04-02T22:05:04;2.90;99.90
54930;DHT22;40833;53.238;6.576;2023-04-02T22:07:30;2.80;99.90
54930;DHT22;40833;53.238;6.576;2023-04-02T22:09:55;3.20;99.90
54930;DHT22;40833;53.238;6.576;2023-04-02T22:12:21;2.70;99.90
54930;DHT22;40833;53.238;6.576;2023-04-02T22:14:47;3.60;99.90
54930;DHT22;40833;53.238;6.576;2023-04-02T22:17:12;2.60;99.90
54930;DHT22;40833;53.238;6.576;2023-04-02T22:19:38;2.60;99.90
54930;DHT22;40833;53.238;6.576;2023-04-02T22:22:04;5.50;99.90
54930;DHT22;40833;53.238;6.576;2023-04-02T22:24:30;2.50;99.90